Time;durP1;ratioP1;P1;durP2;ratioP2;P2;SDS_P1;SDS_P2;PMS_P1;PMS_P2;Temp;Humidity;BMP_temperature;BMP_pressure;BME280_temperature;BME280_humidity;BME280_pressure;Samples;Min_cycle;Max_cycle;Signal;HPM_P1;HPM_P2
2023/03/27 00:01:13;;;;;;;13.18;2.92;;;;;;;5.79;100.00;100887.81;5063256;28;20051;-80
2023/03/27 00:03:41;;;;;;;19.38;3.20;;;;;;;5.78;100.00;100894.47;5050226;28;20044;-81
2023/03/27 00:06:10;;;;;;;18.50;3.45;;;;;;;5.75;100.00;100903.44;5067466;28;20056;-77
2023/03/27 00:08:37;;;;;;;13.32;2.80;;;;;;;5.72;100.00;100909.66;5066372;28;20044;-81
2023/03/27 00:11:06;;;;;;;18.95;3.50;;;;;;;5.72;100.00;100912.38;5065159;28;20511;-79
2023/03/27 00:13:34;;;;;;;18.67;3.10;;;;;;;5.70;100.00;100914.72;5065882;28;20044;-78
2023/03/27 00:16:01;;;;;;;19.15;4.07;;;;;;;5.67;100.00;100915.44;5061844;28;20063;-79
2023/03/27 00:18:28;;;;;;;21.23;2.97;;;;;;;5.62;100.00;100918.44;5071450;28;20056;-80
2023/03/27 00:21:01;;;;;;;15.98;2.88;;;;;;;5.54;100.00;100931.25;5045607;28;20079;-79
2023/03/27 00:23:29;;;;;;;17.25;3.00;;;;;;;5.47;100.00;100929.13;5046924;28;20144;-79
2023/03/27 00:25:57;;;;;;;14.88;2.90;;;;;;;5.40;100.00;100920.72;5065685;28;20055;-78
2023/03/27 00:28:26;;;;;;;13.60;3.08;;;;;;;5.40;100.00;100939.94;5066067;28;20066;-79
2023/03/27 00:30:54;;;;;;;22.95;3.30;;;;;;;5.32;100.00;100945.59;5063103;28;20036;-77
2023/03/27 00:33:22;;;;;;;15.77;2.72;;;;;;;5.22;100.00;100946.97;5065734;28;20108;-80
2023/03/27 00:35:50;;;;;;;21.58;3.70;;;;;;;5.22;100.00;100957.94;5068816;28;20134;-77
2023/03/27 00:38:17;;;;;;;17.70;2.83;;;;;;;5.17;100.00;100957.41;5064111;28;20052;-78
2023/03/27 00:40:45;;;;;;;14.40;4.22;;;;;;;5.15;100.00;100967.94;5069926;28;20666;-79
2023/03/27 00:43:23;;;;;;;19.90;3.05;;;;;;;5.06;100.00;100959.88;5065903;28;20399;-80
2023/03/27 00:45:54;;;;;;;11.70;2.75;;;;;;;5.03;100.00;100968.81;5072681;28;20122;-80
2023/03/27 00:48:21;;;;;;;20.45;5.18;;;;;;;4.97;100.00;100969.44;5070893;28;20058;-80
2023/03/27 00:50:48;;;;;;;14.68;2.90;;;;;;;4.97;100.00;100963.97;5069471;28;20052;-78
2023/03/27 00:53:21;;;;;;;12.30;2.78;;;;;;;4.96;100.00;100965.91;5072939;28;20139;-79
2023/03/27 00:55:51;;;;;;;18.98;3.28;;;;;;;4.96;100.00;100970.56;5070097;28;20052;-78
2023/03/27 00:58:32;;;;;;;11.30;2.67;;;;;;;4.89;100.00;100965.72;5074871;28;20055;-78
2023/03/27 01:00:59;;;;;;;13.55;2.75;;;;;;;4.92;100.00;100966.94;5058485;28;20494;-80
2023/03/27 01:03:30;;;;;;;11.95;2.78;;;;;;;4.89;100.00;100973.94;5057238;28;20052;-80
2023/03/27 01:06:00;;;;;;;12.30;2.92;;;;;;;4.90;100.00;100975.53;5064359;28;20566;-80
2023/03/27 01:08:30;;;;;;;16.77;3.05;;;;;;;4.86;100.00;100979.34;5064961;28;20050;-81
2023/03/27 01:11:06;;;;;;;22.92;4.53;;;;;;;4.86;100.00;100982.09;5066739;28;20055;-79
2023/03/27 01:13:57;;;;;;;11.68;2.80;;;;;;;4.81;100.00;100993.31;5065152;28;20067;-81
2023/03/27 01:16:33;;;;;;;25.65;3.47;;;;;;;4.85;100.00;100989.50;5066459;28;20051;-78
2023/03/27 01:19:20;;;;;;;22.42;3.60;;;;;;;4.85;100.00;100997.72;5059354;28;20541;-77
2023/03/27 01:21:52;;;;;;;15.70;2.78;;;;;;;4.84;100.00;101004.38;5058385;28;20499;-77
2023/03/27 01:24:51;;;;;;;17.50;3.00;;;;;;;4.87;100.00;101003.66;5059354;28;20063;-77
2023/03/27 01:27:29;;;;;;;20.65;2.80;;;;;;;4.91;100.00;101010.03;5024666;28;20057;-78
2023/03/27 01:29:56;;;;;;;11.93;2.30;;;;;;;4.85;100.00;101014.19;5064126;28;20566;-78
2023/03/27 01:32:54;;;;;;;16.38;3.10;;;;;;;4.88;100.00;101016.22;5063853;28;20052;-77
2023/03/27 01:35:35;;;;;;;17.50;3.00;;;;;;;4.81;100.00;101012.50;5061807;28;20061;-77
2023/03/27 01:38:24;;;;;;;12.38;3.00;;;;;;;4.84;100.00;101029.06;5070610;28;20053;-78
2023/03/27 01:41:00;;;;;;;15.35;2.95;;;;;;;4.83;100.00;101034.88;5062666;28;20045;-80
2023/03/27 01:43:36;;;;;;;17.65;2.53;;;;;;;4.81;100.00;101034.41;5068091;28;20044;-80
2023/03/27 01:46:14;;;;;;;12.40;3.13;;;;;;;4.80;100.00;101036.34;5064920;28;20529;-79
2023/03/27 01:48:54;;;;;;;10.93;2.35;;;;;;;4.85;100.00;101040.78;5065629;28;20473;-79
2023/03/27 01:51:42;;;;;;;11.60;2.83;;;;;;;4.83;100.00;101040.38;5064598;28;20044;-77
2023/03/27 01:54:18;;;;;;;18.80;3.20;;;;;;;4.80;100.00;101052.03;5070175;28;20059;-79
2023/03/27 01:57:01;;;;;;;20.33;4.22;;;;;;;4.73;100.00;101055.34;5069878;28;20043;-79
2023/03/27 01:59:32;;;;;;;15.43;4.43;;;;;;;4.71;100.00;101057.66;5063654;28;20080;-77
2023/03/27 02:02:04;;;;;;;17.20;3.65;;;;;;;4.69;100.00;101067.41;5069611;28;20044;-79
2023/03/27 02:04:40;;;;;;;12.50;2.55;;;;;;;4.63;100.00;101057.81;5069757;28;20211;-79
2023/03/27 02:07:14;;;;;;;15.18;2.88;;;;;;;4.61;100.00;101065.59;5066496;28;20053;-79
2023/03/27 02:09:48;;;;;;;11.60;2.75;;;;;;;4.51;100.00;101061.41;5069980;28;20083;-79
2023/03/27 02:12:22;;;;;;;16.92;2.65;;;;;;;4.45;100.00;101057.31;5064597;28;20041;-78
2023/03/27 02:14:56;;;;;;;14.60;3.03;;;;;;;4.46;100.00;101067.13;5064320;28;20052;-79
2023/03/27 02:17:51;;;;;;;13.68;3.17;;;;;;;4.44;100.00;101074.09;5071710;28;20477;-78
2023/03/27 02:20:19;;;;;;;18.05;3.80;;;;;;;4.44;100.00;101083.13;5071476;28;20531;-78
2023/03/27 02:22:49;;;;;;;13.82;3.58;;;;;;;4.43;100.00;101087.00;5067422;28;20067;-79
2023/03/27 02:25:45;;;;;;;18.65;3.30;;;;;;;4.42;100.00;101090.09;5069123;28;20423;-78
2023/03/27 02:28:47;;;;;;;16.00;3.13;;;;;;;4.33;100.00;101087.50;5068801;28;20049;-77
2023/03/27 02:31:41;;;;;;;14.15;2.50;;;;;;;4.29;100.00;101094.78;5073396;28;20178;-76
2023/03/27 02:34:37;;;;;;;19.20;2.80;;;;;;;4.26;100.00;101103.69;5062832;28;20048;-79
2023/03/27 02:37:24;;;;;;;11.93;2.58;;;;;;;4.23;100.00;101109.09;5047316;28;20476;-77
2023/03/27 02:40:27;;;;;;;16.27;2.90;;;;;;;4.22;100.00;101116.50;5057694;28;20092;-78
2023/03/27 02:43:06;;;;;;;14.48;3.40;;;;;;;4.20;100.00;101120.72;5056922;28;20058;-80
2023/03/27 02:46:05;;;;;;;16.15;2.83;;;;;;;4.13;100.00;101126.78;5069169;28;20044;-77
2023/03/27 02:48:35;;;;;;;22.85;3.08;;;;;;;4.14;100.00;101131.13;5064401;28;20045;-78
2023/03/27 02:51:42;;;;;;;20.60;3.47;;;;;;;4.13;100.00;101135.00;5068198;28;20044;-75
2023/03/27 02:54:13;;;;;;;9.48;2.50;;;;;;;4.10;100.00;101134.88;5068550;28;20059;-79
2023/03/27 02:56:48;;;;;;;15.45;2.90;;;;;;;4.10;100.00;101126.66;5057253;28;20048;-78
2023/03/27 02:59:17;;;;;;;8.80;2.42;;;;;;;4.15;100.00;101134.66;5066885;28;20138;-78
2023/03/27 03:01:44;;;;;;;13.15;3.30;;;;;;;4.15;100.00;101134.66;5073099;28;20606;-78
2023/03/27 03:04:18;;;;;;;16.45;3.17;;;;;;;4.18;100.00;101139.44;5065850;28;20084;-75
2023/03/27 03:06:45;;;;;;;16.92;3.13;;;;;;;4.13;100.00;101132.28;5064541;28;20055;-77
2023/03/27 03:09:13;;;;;;;13.23;2.70;;;;;;;4.08;100.00;101143.44;5064517;28;20049;-76
2023/03/27 03:11:53;;;;;;;18.40;2.90;;;;;;;4.05;100.00;101152.34;5064395;28;20045;-78
2023/03/27 03:14:29;;;;;;;11.35;2.35;;;;;;;4.07;100.00;101150.06;5063641;28;20140;-78
2023/03/27 03:16:56;;;;;;;9.60;2.30;;;;;;;4.02;100.00;101150.28;5058522;28;20044;-76
2023/03/27 03:19:26;;;;;;;19.48;5.40;;;;;;;4.04;100.00;101158.16;5064439;28;20045;-75
2023/03/27 03:21:52;;;;;;;19.20;4.10;;;;;;;4.02;100.00;101163.97;5067552;28;20558;-80
2023/03/27 03:24:21;;;;;;;13.80;3.40;;;;;;;4.01;100.00;101167.84;5064854;28;20056;-77
2023/03/27 03:26:51;;;;;;;22.02;3.65;;;;;;;3.94;100.00;101162.16;5073801;28;20040;-79
2023/03/27 03:29:18;;;;;;;19.77;3.38;;;;;;;3.95;100.00;101171.19;5063766;28;20430;-80
2023/03/27 03:31:44;;;;;;;17.80;3.47;;;;;;;3.94;100.00;101178.59;5067415;28;20044;-79
2023/03/27 03:34:17;;;;;;;15.52;3.67;;;;;;;3.92;100.00;101180.84;5066662;28;20545;-79
2023/03/27 03:36:47;;;;;;;26.17;3.67;;;;;;;3.89;100.00;101186.22;5064985;28;20044;-80
2023/03/27 03:39:16;;;;;;;13.48;3.08;;;;;;;3.76;100.00;101188.16;5067539;28;20127;-80
2023/03/27 03:41:42;;;;;;;15.65;3.63;;;;;;;3.78;100.00;101194.06;5065980;28;20044;-78
2023/03/27 03:44:09;;;;;;;16.02;3.28;;;;;;;3.74;100.00;101195.91;5068833;28;20507;-79
2023/03/27 03:46:35;;;;;;;16.73;3.42;;;;;;;3.71;100.00;101204.00;5066784;28;20099;-77
2023/03/27 03:49:05;;;;;;;15.60;4.45;;;;;;;3.66;100.00;101198.72;5069850;28;20052;-76
2023/03/27 03:51:33;;;;;;;13.13;2.83;;;;;;;3.67;100.00;101209.34;5070180;28;20044;-78
2023/03/27 03:54:00;;;;;;;8.00;2.58;;;;;;;3.62;100.00;101204.09;5057291;28;20048;-78
2023/03/27 03:56:29;;;;;;;17.38;3.00;;;;;;;3.70;100.00;101213.34;5074790;28;20052;-78
2023/03/27 03:58:56;;;;;;;17.35;4.35;;;;;;;3.68;100.00;101205.47;5052151;28;20144;-81
2023/03/27 04:01:24;;;;;;;10.07;2.70;;;;;;;3.63;100.00;101211.16;5070209;28;20056;-79
2023/03/27 04:03:51;;;;;;;20.95;3.22;;;;;;;3.64;100.00;101212.75;5065035;28;20396;-77
2023/03/27 04:06:24;;;;;;;16.25;3.25;;;;;;;3.62;100.00;101215.06;5070057;28;20056;-77
2023/03/27 04:08:51;;;;;;;17.70;3.45;;;;;;;3.65;100.00;101217.09;5066740;28;20055;-79
2023/03/27 04:11:18;;;;;;;13.73;3.85;;;;;;;3.70;100.00;101229.75;5061886;28;20047;-78
2023/03/27 04:13:45;;;;;;;13.57;3.33;;;;;;;3.71;100.00;101231.38;5067973;28;20130;-76
2023/03/27 04:16:11;;;;;;;10.18;2.67;;;;;;;3.69;100.00;101241.84;5067530;28;20040;-79
2023/03/27 04:18:40;;;;;;;16.48;3.15;;;;;;;3.74;100.00;101245.16;5071802;28;20423;-77
2023/03/27 04:21:14;;;;;;;15.70;3.40;;;;;;;3.74;100.00;101247.91;5069274;28;20048;-77
2023/03/27 04:23:43;;;;;;;13.80;2.92;;;;;;;3.76;100.00;101248.38;5074709;28;20049;-77
2023/03/27 04:26:11;;;;;;;12.82;3.33;;;;;;;3.72;100.00;101249.38;5073976;28;20131;-79
2023/03/27 04:28:38;;;;;;;15.93;3.13;;;;;;;3.75;100.00;101252.22;5073040;28;20044;-79
2023/03/27 04:31:06;;;;;;;10.40;2.95;;;;;;;3.80;100.00;101265.72;5067076;28;20173;-78
2023/03/27 04:33:38;;;;;;;16.10;3.22;;;;;;;3.83;100.00;101259.56;5071264;28;20140;-80
2023/03/27 04:36:06;;;;;;;14.57;3.38;;;;;;;3.87;100.00;101271.44;5074844;28;20052;-77
2023/03/27 04:38:35;;;;;;;15.82;3.55;;;;;;;3.92;100.00;101270.41;5075359;28;20285;-79
2023/03/27 04:41:03;;;;;;;15.43;3.78;;;;;;;3.93;100.00;101269.28;5073082;28;20055;-74
2023/03/27 04:43:30;;;;;;;14.57;3.85;;;;;;;3.94;100.00;101270.84;5070027;28;20048;-76
2023/03/27 04:45:57;;;;;;;10.20;1.95;;;;;;;3.91;100.00;101277.03;5070624;28;20056;-79
2023/03/27 04:48:23;;;;;;;13.43;2.70;;;;;;;3.97;100.00;101281.13;5068018;28;20091;-79
2023/03/27 04:50:50;;;;;;;18.80;3.53;;;;;;;4.01;100.00;101277.38;5077711;28;20049;-77
2023/03/27 04:53:19;;;;;;;14.10;3.25;;;;;;;4.01;100.00;101282.06;5063030;28;20852;-78
2023/03/27 04:55:49;;;;;;;16.42;3.03;;;;;;;4.05;100.00;101289.25;5063781;28;20082;-79
2023/03/27 04:58:17;;;;;;;15.07;3.30;;;;;;;4.04;100.00;101284.94;5077036;28;20105;-77
2023/03/27 05:00:49;;;;;;;18.92;4.45;;;;;;;4.07;100.00;101297.94;5071252;28;20071;-78
2023/03/27 05:03:19;;;;;;;5.78;2.10;;;;;;;4.01;100.00;101293.81;5069112;28;20050;-79
2023/03/27 05:05:48;;;;;;;12.95;3.65;;;;;;;4.07;100.00;101305.34;5079320;28;20048;-78
2023/03/27 05:08:15;;;;;;;8.80;2.78;;;;;;;4.10;100.00;101308.22;5065861;28;20069;-78
2023/03/27 05:10:43;;;;;;;16.80;3.22;;;;;;;4.06;100.00;101301.03;5067592;28;20796;-78
2023/03/27 05:13:10;;;;;;;15.23;3.65;;;;;;;4.12;100.00;101308.66;5067615;28;20055;-78
2023/03/27 05:15:37;;;;;;;14.32;2.80;;;;;;;4.13;100.00;101313.03;5062459;28;20048;-79
2023/03/27 05:18:05;;;;;;;10.73;3.28;;;;;;;4.17;100.00;101315.88;5070061;28;20048;-78
2023/03/27 05:20:33;;;;;;;13.38;3.22;;;;;;;4.19;100.00;101322.59;5063877;28;20051;-79
2023/03/27 05:23:00;;;;;;;10.57;2.75;;;;;;;4.21;100.00;101325.00;5055667;28;20044;-79
2023/03/27 05:25:30;;;;;;;12.50;3.15;;;;;;;4.26;100.00;101333.00;5076179;28;20048;-78
2023/03/27 05:27:58;;;;;;;13.43;3.08;;;;;;;4.28;100.00;101326.03;5052428;28;20052;-77
2023/03/27 05:30:25;;;;;;;12.20;2.80;;;;;;;4.29;100.00;101338.59;5069832;28;20056;-80
2023/03/27 05:32:52;;;;;;;11.95;3.55;;;;;;;4.34;100.00;101345.78;5073595;28;20446;-78
2023/03/27 05:35:22;;;;;;;11.70;3.17;;;;;;;4.37;100.00;101354.16;5050453;28;20073;-78
2023/03/27 05:37:51;;;;;;;18.30;3.67;;;;;;;4.41;100.00;101349.59;5073058;28;20056;-77
2023/03/27 05:40:21;;;;;;;13.60;3.15;;;;;;;4.47;100.00;101356.44;5053664;28;20587;-77
2023/03/27 05:42:49;;;;;;;15.35;4.10;;;;;;;4.54;100.00;101361.34;5068875;28;20048;-78
2023/03/27 05:45:17;;;;;;;11.13;2.70;;;;;;;4.57;100.00;101360.66;5060967;28;20423;-77
2023/03/27 05:47:46;;;;;;;18.55;3.63;;;;;;;4.60;100.00;101368.22;5074153;28;20050;-78
2023/03/27 05:50:14;;;;;;;11.52;3.22;;;;;;;4.66;100.00;101373.13;5071860;28;20048;-77
2023/03/27 05:52:41;;;;;;;12.65;2.65;;;;;;;4.64;100.00;101369.94;5069911;28;20145;-78
2023/03/27 05:55:09;;;;;;;5.47;2.33;;;;;;;4.64;100.00;101374.59;5074466;28;20056;-80
2023/03/27 05:57:40;;;;;;;15.77;3.72;;;;;;;4.68;100.00;101372.78;5067572;28;20053;-78
2023/03/27 06:00:12;;;;;;;18.35;2.95;;;;;;;4.71;100.00;101383.06;5077243;28;20047;-79
2023/03/27 06:02:42;;;;;;;11.38;2.83;;;;;;;4.72;100.00;101377.25;5073202;28;20132;-79
2023/03/27 06:05:14;;;;;;;12.82;3.00;;;;;;;4.71;100.00;101378.41;5068713;28;20040;-77
2023/03/27 06:07:41;;;;;;;15.75;2.90;;;;;;;4.74;100.00;101385.94;5054977;28;20883;-79
2023/03/27 06:10:11;;;;;;;7.65;2.30;;;;;;;4.73;100.00;101389.81;5072983;28;20071;-76
2023/03/27 06:12:40;;;;;;;11.45;3.20;;;;;;;4.82;100.00;101395.16;5075580;28;20051;-80
2023/03/27 06:15:08;;;;;;;11.98;3.65;;;;;;;4.79;100.00;101388.44;5074843;28;20060;-79
2023/03/27 06:17:38;;;;;;;13.27;3.42;;;;;;;4.78;100.00;101386.84;5073997;28;20549;-79
2023/03/27 06:20:11;;;;;;;13.30;3.35;;;;;;;4.84;100.00;101407.41;5074168;28;20597;-79
2023/03/27 06:22:41;;;;;;;10.88;2.78;;;;;;;4.87;100.00;101406.72;5073732;28;20054;-78
2023/03/27 06:25:08;;;;;;;10.63;3.25;;;;;;;4.87;100.00;101405.94;5070539;28;20056;-78
2023/03/27 06:27:34;;;;;;;15.93;3.67;;;;;;;4.87;100.00;101409.44;5071410;28;20391;-77
2023/03/27 06:30:01;;;;;;;10.20;3.65;;;;;;;4.88;100.00;101411.06;5069709;28;20139;-79
2023/03/27 06:32:27;;;;;;;15.77;3.08;;;;;;;4.94;100.00;101406.16;5067810;28;20040;-78
2023/03/27 06:34:54;;;;;;;13.38;3.05;;;;;;;4.94;100.00;101415.19;5069191;28;20497;-78
2023/03/27 06:37:23;;;;;;;8.73;2.80;;;;;;;4.98;100.00;101415.28;5065430;28;20048;-79
2023/03/27 06:39:50;;;;;;;13.35;3.25;;;;;;;5.05;100.00;101423.75;5069779;28;20086;-78
2023/03/27 06:42:17;;;;;;;8.35;2.72;;;;;;;5.04;100.00;101422.94;5065977;28;20107;-78
2023/03/27 06:44:43;;;;;;;13.50;3.08;;;;;;;5.11;100.00;101431.44;5066634;28;20143;-77
2023/03/27 06:47:11;;;;;;;15.43;2.97;;;;;;;5.15;100.00;101432.34;5071313;28;20130;-77
2023/03/27 06:49:38;;;;;;;12.60;3.17;;;;;;;5.19;100.00;101426.94;5073360;28;20056;-79
2023/03/27 06:52:04;;;;;;;10.35;3.00;;;;;;;5.22;100.00;101432.56;5072016;28;20048;-77
2023/03/27 06:54:31;;;;;;;6.70;2.63;;;;;;;5.27;100.00;101437.78;5069139;28;20059;-78
2023/03/27 06:57:00;;;;;;;11.30;2.80;;;;;;;5.26;100.00;101433.47;5070415;28;20110;-79
2023/03/27 06:59:26;;;;;;;13.02;2.78;;;;;;;5.29;100.00;101427.28;5070825;28;20063;-78
2023/03/27 07:01:53;;;;;;;7.72;2.45;;;;;;;5.39;100.00;101445.22;5071862;28;20048;-78
2023/03/27 07:04:20;;;;;;;8.73;1.80;;;;;;;5.41;100.00;101445.69;5074480;28;20044;-78
2023/03/27 07:06:47;;;;;;;9.73;2.75;;;;;;;5.54;100.00;101444.53;5063576;28;20579;-80
2023/03/27 07:09:14;;;;;;;9.68;2.47;;;;;;;5.59;100.00;101446.22;5070204;28;20048;-80
2023/03/27 07:11:41;;;;;;;9.88;3.65;;;;;;;5.72;100.00;101456.03;5073148;28;20048;-78
2023/03/27 07:14:07;;;;;;;16.38;3.55;;;;;;;5.78;100.00;101449.16;5076680;28;20090;-78
2023/03/27 07:16:34;;;;;;;13.05;2.78;;;;;;;5.82;100.00;101456.38;5072244;28;20063;-81
2023/03/27 07:19:01;;;;;;;7.95;2.25;;;;;;;5.81;100.00;101457.53;5069536;28;20419;-79
2023/03/27 07:21:28;;;;;;;11.48;1.80;;;;;;;5.93;100.00;101465.72;5051759;28;20048;-77
2023/03/27 07:23:55;;;;;;;2.80;1.40;;;;;;;6.05;100.00;101475.88;5065223;28;20580;-77
2023/03/27 07:26:21;;;;;;;6.35;1.95;;;;;;;6.12;100.00;101476.91;5073805;28;20045;-76
2023/03/27 07:28:49;;;;;;;11.60;2.85;;;;;;;6.20;100.00;101488.88;5065965;28;20088;-80
2023/03/27 07:31:16;;;;;;;16.17;2.53;;;;;;;6.24;100.00;101487.06;5053346;28;20160;-76
2023/03/27 07:33:45;;;;;;;8.75;1.65;;;;;;;6.41;100.00;101481.25;5069948;28;20505;-78
2023/03/27 07:36:13;;;;;;;4.18;1.33;;;;;;;6.53;100.00;101492.97;5068041;28;20113;-76
2023/03/27 07:38:40;;;;;;;3.88;1.90;;;;;;;6.59;100.00;101496.28;5061120;28;20132;-76
2023/03/27 07:41:08;;;;;;;9.00;3.90;;;;;;;6.62;100.00;101503.81;5061955;28;20094;-77
2023/03/27 07:43:34;;;;;;;2.17;0.98;;;;;;;6.54;100.00;101502.00;5049560;28;20098;-77
2023/03/27 07:46:02;;;;;;;1.08;0.63;;;;;;;6.65;100.00;101505.88;5072483;28;20059;-77
2023/03/27 07:48:29;;;;;;;7.00;1.77;;;;;;;6.73;100.00;101505.72;5072951;28;20044;-75
2023/03/27 07:50:59;;;;;;;8.57;1.85;;;;;;;6.72;100.00;101506.06;5076010;28;20055;-78
2023/03/27 07:53:38;;;;;;;1.30;0.50;;;;;;;6.76;100.00;101507.75;5062163;28;20067;-77
2023/03/27 07:56:07;;;;;;;5.07;1.80;;;;;;;6.82;100.00;101514.56;5071328;28;20066;-77
2023/03/27 07:58:34;;;;;;;5.90;0.85;;;;;;;6.76;100.00;101518.75;5074763;28;20131;-77
2023/03/27 08:01:01;;;;;;;3.90;0.85;;;;;;;6.84;100.00;101512.28;5060075;28;20048;-77
2023/03/27 08:03:29;;;;;;;3.00;0.98;;;;;;;6.99;100.00;101522.50;5052452;28;20040;-79
2023/03/27 08:05:58;;;;;;;10.02;1.88;;;;;;;7.13;100.00;101522.06;5054562;28;20056;-77
2023/03/27 08:08:26;;;;;;;5.10;1.83;;;;;;;7.20;100.00;101525.00;5053122;28;20063;-78
2023/03/27 08:10:54;;;;;;;7.65;1.20;;;;;;;7.25;100.00;101508.22;5068409;28;20044;-80
2023/03/27 08:13:20;;;;;;;8.30;1.45;;;;;;;7.33;100.00;101519.03;5069611;28;20044;-80
2023/03/27 08:15:47;;;;;;;1.52;0.90;;;;;;;7.34;100.00;101523.41;5066185;28;20131;-78
2023/03/27 08:18:13;;;;;;;0.63;0.63;;;;;;;7.33;100.00;101523.75;5073828;28;20048;-79
2023/03/27 08:20:41;;;;;;;5.15;1.15;;;;;;;7.42;100.00;101529.88;5070450;28;20052;-79
2023/03/27 08:23:07;;;;;;;7.78;1.85;;;;;;;7.55;100.00;101539.63;5076823;28;20052;-78
2023/03/27 08:25:34;;;;;;;4.50;1.48;;;;;;;7.64;100.00;101543.00;5080877;28;20050;-78
2023/03/27 08:28:01;;;;;;;2.25;0.90;;;;;;;7.65;100.00;101536.34;5073379;28;20048;-78
2023/03/27 08:30:28;;;;;;;7.22;1.52;;;;;;;7.57;100.00;101545.59;5070160;28;20054;-80
2023/03/27 08:32:56;;;;;;;3.75;0.90;;;;;;;7.68;100.00;101541.13;5067680;28;20040;-78
2023/03/27 08:35:23;;;;;;;8.52;1.65;;;;;;;7.81;100.00;101542.63;5072567;28;20048;-78
2023/03/27 08:37:51;;;;;;;11.35;1.63;;;;;;;7.86;100.00;101550.59;5068425;28;20053;-79
2023/03/27 08:40:26;;;;;;;5.75;2.03;;;;;;;7.85;100.00;101549.00;5062361;28;20140;-77
2023/03/27 08:42:57;;;;;;;;;;;;;;;7.83;100.00;101554.88;5065827;28;20044;-78
2023/03/27 08:45:28;;;;;;;9.00;2.45;;;;;;;7.89;100.00;101558.16;5073485;28;19999;-79
2023/03/27 08:48:06;;;;;;;5.05;1.38;;;;;;;7.94;100.00;101553.16;5072945;28;20067;-76
2023/03/27 08:50:39;;;;;;;6.00;1.55;;;;;;;8.05;100.00;101561.69;5070297;28;20046;-79
2023/03/27 08:53:16;;;;;;;12.18;2.78;;;;;;;8.16;100.00;101565.47;5069380;28;20419;-78
2023/03/27 08:55:43;;;;;;;7.22;1.88;;;;;;;8.32;100.00;101565.44;5066645;28;20080;-79
2023/03/27 08:58:19;;;;;;;1.98;0.95;;;;;;;8.38;100.00;101559.28;5065982;28;20062;-80
2023/03/27 09:00:53;;;;;;;6.70;1.63;;;;;;;8.59;100.00;101576.28;5066410;28;20047;-76
2023/03/27 09:03:27;;;;;;;0.55;0.45;;;;;;;8.58;100.00;101577.44;5069228;28;20048;-78
2023/03/27 09:06:07;;;;;;;4.88;1.90;;;;;;;8.65;100.00;101569.31;5071652;28;20067;-78
2023/03/27 09:09:02;;;;;;;3.35;1.13;;;;;;;8.74;100.00;101580.91;5067570;28;20124;-79
2023/03/27 09:11:59;;;;;;;9.70;2.80;;;;;;;8.79;100.00;101586.16;5053669;28;20054;-77
2023/03/27 09:14:30;;;;;;;7.93;1.80;;;;;;;8.80;100.00;101573.13;5055322;28;20059;-78
2023/03/27 09:17:03;;;;;;;10.15;1.98;;;;;;;8.72;100.00;101582.44;5074767;28;20055;-77
2023/03/27 09:19:42;;;;;;;3.95;1.08;;;;;;;8.79;100.00;101577.88;5071347;28;20063;-78
2023/03/27 09:22:15;;;;;;;10.10;1.50;;;;;;;8.83;100.00;101578.72;5071690;28;20135;-78
2023/03/27 09:24:46;;;;;;;5.32;1.95;;;;;;;8.77;100.00;101573.88;5070349;28;20058;-77
2023/03/27 09:27:20;;;;;;;11.02;1.50;;;;;;;8.84;100.00;101579.53;5077813;28;20059;-79
2023/03/27 09:30:13;;;;;;;9.93;1.73;;;;;;;8.98;100.00;101585.31;5071848;28;20083;-78
2023/03/27 09:32:41;;;;;;;1.15;1.05;;;;;;;9.22;100.00;101587.75;5070294;28;20175;-78
2023/03/27 09:35:14;;;;;;;2.05;1.02;;;;;;;9.27;100.00;101582.72;5072514;28;20049;-78
2023/03/27 09:37:43;;;;;;;11.35;1.88;;;;;;;9.37;100.00;101592.34;5072756;28;20056;-78
2023/03/27 09:40:24;;;;;;;2.80;0.95;;;;;;;9.35;100.00;101595.47;5069358;28;20556;-78
2023/03/27 09:42:53;;;;;;;4.45;1.25;;;;;;;9.49;100.00;101576.38;5067381;28;20577;-79
2023/03/27 09:45:20;;;;;;;4.88;1.27;;;;;;;9.73;100.00;101589.03;5060408;28;20063;-78
2023/03/27 09:48:00;;;;;;;3.80;1.00;;;;;;;9.62;100.00;101588.84;5071379;28;20104;-78
2023/03/27 09:50:33;;;;;;;6.80;1.58;;;;;;;9.59;100.00;101589.56;5062277;28;20421;-78
2023/03/27 09:53:15;;;;;;;3.97;0.85;;;;;;;9.48;100.00;101596.88;5077888;28;20059;-80
2023/03/27 09:55:51;;;;;;;5.40;1.58;;;;;;;9.64;100.00;101597.56;5055715;28;20055;-80
2023/03/27 09:58:27;;;;;;;4.13;1.02;;;;;;;9.87;100.00;101601.09;5075742;28;20090;-79
2023/03/27 10:01:12;;;;;;;1.15;0.80;;;;;;;9.83;100.00;101611.28;5076539;28;20048;-78
2023/03/27 10:03:51;;;;;;;3.55;1.20;;;;;;;9.57;100.00;101605.75;5068864;28;20041;-80
2023/03/27 10:06:29;;;;;;;3.80;1.20;;;;;;;9.59;100.00;101606.16;5071690;28;20084;-82
2023/03/27 10:09:05;;;;;;;4.88;1.60;;;;;;;9.55;100.00;101610.81;5077332;28;20109;-80
2023/03/27 10:11:34;;;;;;;0.77;0.55;;;;;;;9.63;100.00;101609.78;5078417;28;20055;-80
2023/03/27 10:14:11;;;;;;;4.93;1.15;;;;;;;9.96;100.00;101609.13;5081944;28;20126;-80
2023/03/27 10:16:40;;;;;;;6.07;1.77;;;;;;;10.09;100.00;101605.81;5063714;28;20052;-80
2023/03/27 10:19:30;;;;;;;7.78;1.20;;;;;;;10.20;100.00;101603.22;5079407;28;20056;-80
2023/03/27 10:22:06;;;;;;;9.77;1.73;;;;;;;10.05;100.00;101618.75;5062128;28;20056;-79
2023/03/27 10:24:40;;;;;;;7.43;1.27;;;;;;;10.14;100.00;101627.63;5077970;28;20059;-79
2023/03/27 10:27:25;;;;;;;7.53;1.88;;;;;;;10.01;100.00;101619.88;5080715;28;20086;-79
2023/03/27 10:29:51;;;;;;;7.10;1.77;;;;;;;9.96;100.00;101618.22;5076981;28;20052;-79
2023/03/27 10:32:39;;;;;;;7.60;1.83;;;;;;;9.86;100.00;101618.84;5077584;28;20060;-80
2023/03/27 10:35:21;;;;;;;4.72;1.30;;;;;;;9.63;100.00;101623.63;5064735;28;20063;-79
2023/03/27 10:37:50;;;;;;;5.97;1.63;;;;;;;9.99;100.00;101620.25;5054600;28;20191;-80
2023/03/27 10:40:25;;;;;;;1.65;0.95;;;;;;;9.96;100.00;101623.75;5058526;28;20079;-78
2023/03/27 10:42:55;;;;;;;4.30;1.30;;;;;;;10.36;100.00;101618.44;5063476;28;20487;-79
2023/03/27 10:45:22;;;;;;;7.78;1.02;;;;;;;10.57;100.00;101624.28;5071344;28;20037;-79
2023/03/27 10:47:59;;;;;;;4.15;0.90;;;;;;;10.85;100.00;101631.34;5053663;28;20082;-79
2023/03/27 10:50:37;;;;;;;0.90;0.65;;;;;;;10.81;98.15;101625.78;5065799;28;20049;-79
2023/03/27 10:53:03;;;;;;;4.82;0.88;;;;;;;10.95;94.00;101617.63;5068192;28;20048;-81
2023/03/27 10:55:47;;;;;;;6.28;1.70;;;;;;;11.10;95.36;101624.13;5065245;28;20053;-79
2023/03/27 10:58:22;;;;;;;6.95;1.33;;;;;;;11.19;99.76;101613.53;5074855;28;20057;-80
2023/03/27 11:01:18;;;;;;;1.88;0.45;;;;;;;10.58;95.05;101622.31;5072215;28;20379;-79
2023/03/27 11:04:04;;;;;;;13.23;1.38;;;;;;;10.47;97.13;101624.91;5056195;28;20172;-81
2023/03/27 11:06:35;;;;;;;1.30;0.65;;;;;;;10.61;97.23;101623.53;5071511;28;20060;-80
2023/03/27 11:09:05;;;;;;;10.60;1.48;;;;;;;10.78;96.39;101631.25;5067199;28;20057;-78
2023/03/27 11:11:41;;;;;;;4.57;1.30;;;;;;;10.75;95.61;101626.47;5067429;28;20067;-78
2023/03/27 11:14:18;;;;;;;3.35;0.75;;;;;;;10.77;91.49;101633.25;5070902;28;20049;-78
2023/03/27 11:16:52;;;;;;;6.45;1.48;;;;;;;10.86;96.29;101630.19;5067386;28;20551;-81
2023/03/27 11:19:28;;;;;;;5.32;1.25;;;;;;;11.30;98.98;101631.09;5073218;28;20045;-79
2023/03/27 11:22:01;;;;;;;2.20;1.13;;;;;;;11.04;92.99;101645.03;5063936;28;20055;-81
2023/03/27 11:24:34;;;;;;;8.70;2.08;;;;;;;10.94;99.40;101667.84;5061014;28;20056;-81
2023/03/27 11:27:07;;;;;;;2.47;0.70;;;;;;;10.57;100.00;101690.69;5056733;28;20049;-82
2023/03/27 11:29:43;;;;;;;3.67;1.20;;;;;;;10.28;100.00;101710.00;5062634;28;20550;-79
2023/03/27 11:32:32;;;;;;;4.60;1.30;;;;;;;9.71;100.00;101701.88;5058812;28;20052;-80
2023/03/27 11:35:11;;;;;;;5.68;1.40;;;;;;;9.41;100.00;101696.22;5061391;28;20410;-79
2023/03/27 11:37:46;;;;;;;2.00;0.65;;;;;;;9.30;100.00;101688.88;5057944;28;20048;-79
2023/03/27 11:40:23;;;;;;;3.63;1.00;;;;;;;9.46;100.00;101698.69;5044722;28;20053;-79
2023/03/27 11:42:50;;;;;;;1.38;0.70;;;;;;;9.60;100.00;101695.38;5058682;28;20052;-79